sensor_id;sensor_type;location;lat;lon;timestamp;P1;durP1;ratioP1;P2;durP2;ratioP2
76995;SDS011;65929;49.062;10.338;2022-12-28T00:01:06;4.55;;;2.80;;
76995;SDS011;65929;49.062;10.338;2022-12-28T00:02:11;3.80;;;2.72;;
76995;SDS011;65929;49.062;10.338;2022-12-28T00:03:12;5.72;;;2.92;;
76995;SDS011;65929;49.062;10.338;2022-12-28T00:04:13;5.80;;;2.97;;
76995;SDS011;65929;49.062;10.338;2022-12-28T00:05:14;5.93;;;2.58;;
76995;SDS011;65929;49.062;10.338;2022-12-28T00:06:20;6.18;;;3.05;;
76995;SDS011;65929;49.062;10.338;2022-12-28T00:07:25;5.15;;;3.30;;
76995;SDS011;65929;49.062;10.338;2022-12-28T00:08:29;5.65;;;3.28;;
76995;SDS011;65929;49.062;10.338;2022-12-28T00:09:30;5.65;;;2.97;;
76995;SDS011;65929;49.062;10.338;2022-12-28T00:12:07;5.45;;;2.80;;
76995;SDS011;65929;49.062;10.338;2022-12-28T00:14:19;6.47;;;3.47;;
76995;SDS011;65929;49.062;10.338;2022-12-28T00:18:52;6.80;;;3.80;;
76995;SDS011;65929;49.062;10.338;2022-12-28T00:21:04;4.25;;;2.85;;
76995;SDS011;65929;49.062;10.338;2022-12-28T00:22:08;6.43;;;3.75;;
76995;SDS011;65929;49.062;10.338;2022-12-28T00:23:14;5.85;;;3.55;;
76995;SDS011;65929;49.062;10.338;2022-12-28T00:24:17;7.60;;;4.60;;
76995;SDS011;65929;49.062;10.338;2022-12-28T00:25:18;12.25;;;4.78;;
76995;SDS011;65929;49.062;10.338;2022-12-28T00:26:27;8.05;;;4.63;;
76995;SDS011;65929;49.062;10.338;2022-12-28T00:27:51;9.40;;;4.47;;
76995;SDS011;65929;49.062;10.338;2022-12-28T00:28:55;7.25;;;4.32;;
76995;SDS011;65929;49.062;10.338;2022-12-28T00:30:27;9.85;;;4.75;;
76995;SDS011;65929;49.062;10.338;2022-12-28T00:31:40;4.78;;;3.55;;
76995;SDS011;65929;49.062;10.338;2022-12-28T00:32:48;6.78;;;4.32;;
76995;SDS011;65929;49.062;10.338;2022-12-28T00:33:52;6.57;;;3.75;;
76995;SDS011;65929;49.062;10.338;2022-12-28T00:34:53;8.88;;;3.78;;
76995;SDS011;65929;49.062;10.338;2022-12-28T00:35:54;5.82;;;3.80;;
76995;SDS011;65929;49.062;10.338;2022-12-28T00:36:56;7.35;;;4.32;;
76995;SDS011;65929;49.062;10.338;2022-12-28T00:37:57;7.63;;;4.00;;
76995;SDS011;65929;49.062;10.338;2022-12-28T00:38:58;7.05;;;3.88;;
76995;SDS011;65929;49.062;10.338;2022-12-28T00:39:59;8.20;;;4.00;;
76995;SDS011;65929;49.062;10.338;2022-12-28T00:41:00;7.32;;;4.47;;
76995;SDS011;65929;49.062;10.338;2022-12-28T00:42:01;7.10;;;3.70;;
76995;SDS011;65929;49.062;10.338;2022-12-28T00:43:03;5.22;;;3.17;;
76995;SDS011;65929;49.062;10.338;2022-12-28T00:44:04;7.53;;;3.65;;
76995;SDS011;65929;49.062;10.338;2022-12-28T00:45:05;6.53;;;4.28;;
76995;SDS011;65929;49.062;10.338;2022-12-28T00:46:07;6.90;;;3.88;;
76995;SDS011;65929;49.062;10.338;2022-12-28T00:47:23;6.97;;;3.83;;
76995;SDS011;65929;49.062;10.338;2022-12-28T00:48:30;6.13;;;4.25;;
76995;SDS011;65929;49.062;10.338;2022-12-28T00:49:31;7.15;;;3.75;;
76995;SDS011;65929;49.062;10.338;2022-12-28T00:50:38;5.30;;;3.10;;
76995;SDS011;65929;49.062;10.338;2022-12-28T00:51:39;5.88;;;3.50;;
76995;SDS011;65929;49.062;10.338;2022-12-28T00:54:53;2.88;;;2.38;;
76995;SDS011;65929;49.062;10.338;2022-12-28T00:56:05;3.78;;;2.65;;
76995;SDS011;65929;49.062;10.338;2022-12-28T00:57:07;6.35;;;2.95;;
76995;SDS011;65929;49.062;10.338;2022-12-28T00:58:12;5.65;;;2.83;;
76995;SDS011;65929;49.062;10.338;2022-12-28T00:59:16;4.78;;;2.83;;
76995;SDS011;65929;49.062;10.338;2022-12-28T01:00:20;5.38;;;2.67;;
76995;SDS011;65929;49.062;10.338;2022-12-28T01:01:23;6.00;;;2.95;;
76995;SDS011;65929;49.062;10.338;2022-12-28T01:02:24;6.47;;;3.28;;
76995;SDS011;65929;49.062;10.338;2022-12-28T01:03:28;4.28;;;3.08;;
76995;SDS011;65929;49.062;10.338;2022-12-28T01:04:30;5.30;;;2.72;;
76995;SDS011;65929;49.062;10.338;2022-12-28T01:05:37;4.95;;;2.35;;
76995;SDS011;65929;49.062;10.338;2022-12-28T01:06:39;5.60;;;2.78;;
76995;SDS011;65929;49.062;10.338;2022-12-28T01:07:40;6.80;;;2.85;;
76995;SDS011;65929;49.062;10.338;2022-12-28T01:08:43;5.75;;;3.42;;
76995;SDS011;65929;49.062;10.338;2022-12-28T01:09:46;4.05;;;2.40;;
76995;SDS011;65929;49.062;10.338;2022-12-28T01:10:47;4.95;;;2.45;;
76995;SDS011;65929;49.062;10.338;2022-12-28T01:11:48;5.80;;;2.80;;
76995;SDS011;65929;49.062;10.338;2022-12-28T01:12:49;3.92;;;2.45;;
76995;SDS011;65929;49.062;10.338;2022-12-28T01:13:52;3.78;;;2.42;;
76995;SDS011;65929;49.062;10.338;2022-12-28T01:14:58;7.68;;;2.80;;
76995;SDS011;65929;49.062;10.338;2022-12-28T01:16:09;6.53;;;3.30;;
76995;SDS011;65929;49.062;10.338;2022-12-28T01:17:11;4.70;;;2.85;;
76995;SDS011;65929;49.062;10.338;2022-12-28T01:18:20;7.40;;;3.00;;
76995;SDS011;65929;49.062;10.338;2022-12-28T01:19:21;5.30;;;2.80;;
76995;SDS011;65929;49.062;10.338;2022-12-28T01:20:22;6.97;;;3.03;;
76995;SDS011;65929;49.062;10.338;2022-12-28T01:21:24;4.28;;;2.60;;
76995;SDS011;65929;49.062;10.338;2022-12-28T01:22:27;5.82;;;3.08;;
76995;SDS011;65929;49.062;10.338;2022-12-28T01:23:28;6.03;;;2.55;;
76995;SDS011;65929;49.062;10.338;2022-12-28T01:24:29;4.47;;;2.45;;
76995;SDS011;65929;49.062;10.338;2022-12-28T01:25:31;5.18;;;2.67;;
76995;SDS011;65929;49.062;10.338;2022-12-28T01:26:32;10.57;;;3.25;;
76995;SDS011;65929;49.062;10.338;2022-12-28T01:27:53;4.65;;;2.97;;
76995;SDS011;65929;49.062;10.338;2022-12-28T01:28:56;6.03;;;2.78;;
76995;SDS011;65929;49.062;10.338;2022-12-28T01:29:57;5.18;;;3.10;;
76995;SDS011;65929;49.062;10.338;2022-12-28T01:31:01;8.30;;;3.45;;
76995;SDS011;65929;49.062;10.338;2022-12-28T01:32:03;5.88;;;2.92;;
76995;SDS011;65929;49.062;10.338;2022-12-28T01:33:04;7.07;;;3.70;;
76995;SDS011;65929;49.062;10.338;2022-12-28T01:34:05;7.35;;;3.30;;
76995;SDS011;65929;49.062;10.338;2022-12-28T01:35:07;7.75;;;3.90;;
76995;SDS011;65929;49.062;10.338;2022-12-28T01:36:08;7.85;;;3.22;;
76995;SDS011;65929;49.062;10.338;2022-12-28T01:37:12;6.68;;;3.70;;
76995;SDS011;65929;49.062;10.338;2022-12-28T01:38:13;5.85;;;3.42;;
76995;SDS011;65929;49.062;10.338;2022-12-28T01:39:14;6.18;;;2.92;;
76995;SDS011;65929;49.062;10.338;2022-12-28T01:40:15;5.97;;;2.95;;
76995;SDS011;65929;49.062;10.338;2022-12-28T01:41:47;8.10;;;3.10;;
76995;SDS011;65929;49.062;10.338;2022-12-28T01:42:50;6.88;;;2.88;;
76995;SDS011;65929;49.062;10.338;2022-12-28T01:45:31;6.63;;;3.30;;
76995;SDS011;65929;49.062;10.338;2022-12-28T01:46:33;5.07;;;2.90;;
76995;SDS011;65929;49.062;10.338;2022-12-28T01:47:37;4.72;;;2.78;;
76995;SDS011;65929;49.062;10.338;2022-12-28T01:48:39;5.13;;;2.97;;
76995;SDS011;65929;49.062;10.338;2022-12-28T01:49:49;5.43;;;2.72;;
76995;SDS011;65929;49.062;10.338;2022-12-28T01:50:54;5.35;;;2.70;;
76995;SDS011;65929;49.062;10.338;2022-12-28T01:51:57;5.50;;;2.97;;
76995;SDS011;65929;49.062;10.338;2022-12-28T01:53:01;6.15;;;2.67;;
76995;SDS011;65929;49.062;10.338;2022-12-28T01:54:04;6.78;;;2.90;;
76995;SDS011;65929;49.062;10.338;2022-12-28T01:55:06;5.07;;;2.47;;
76995;SDS011;65929;49.062;10.338;2022-12-28T01:56:16;6.60;;;3.30;;
76995;SDS011;65929;49.062;10.338;2022-12-28T01:57:35;5.85;;;2.80;;
76995;SDS011;65929;49.062;10.338;2022-12-28T01:58:40;4.07;;;2.63;;
76995;SDS011;65929;49.062;10.338;2022-12-28T01:59:43;4.30;;;2.60;;
76995;SDS011;65929;49.062;10.338;2022-12-28T02:00:50;5.15;;;2.70;;
76995;SDS011;65929;49.062;10.338;2022-12-28T02:01:51;4.38;;;2.80;;
76995;SDS011;65929;49.062;10.338;2022-12-28T02:02:53;5.10;;;2.85;;
76995;SDS011;65929;49.062;10.338;2022-12-28T02:03:57;5.93;;;3.10;;
76995;SDS011;65929;49.062;10.338;2022-12-28T02:04:58;5.50;;;2.45;;
76995;SDS011;65929;49.062;10.338;2022-12-28T02:06:01;5.55;;;2.85;;
76995;SDS011;65929;49.062;10.338;2022-12-28T02:07:05;5.55;;;2.28;;
76995;SDS011;65929;49.062;10.338;2022-12-28T02:08:07;5.78;;;2.75;;
76995;SDS011;65929;49.062;10.338;2022-12-28T02:09:13;5.78;;;2.75;;
76995;SDS011;65929;49.062;10.338;2022-12-28T02:10:19;5.05;;;2.55;;
76995;SDS011;65929;49.062;10.338;2022-12-28T02:11:21;6.55;;;2.63;;
76995;SDS011;65929;49.062;10.338;2022-12-28T02:12:23;5.28;;;2.70;;
76995;SDS011;65929;49.062;10.338;2022-12-28T02:13:24;4.75;;;2.70;;
76995;SDS011;65929;49.062;10.338;2022-12-28T02:14:25;5.85;;;2.47;;
76995;SDS011;65929;49.062;10.338;2022-12-28T02:15:27;4.50;;;2.88;;
76995;SDS011;65929;49.062;10.338;2022-12-28T02:16:29;8.85;;;3.38;;
76995;SDS011;65929;49.062;10.338;2022-12-28T02:17:30;5.15;;;2.63;;
76995;SDS011;65929;49.062;10.338;2022-12-28T02:18:32;5.47;;;2.95;;
76995;SDS011;65929;49.062;10.338;2022-12-28T02:19:46;3.72;;;2.30;;
76995;SDS011;65929;49.062;10.338;2022-12-28T02:21:08;6.00;;;3.10;;
76995;SDS011;65929;49.062;10.338;2022-12-28T02:22:39;6.43;;;2.95;;
76995;SDS011;65929;49.062;10.338;2022-12-28T02:24:16;6.15;;;2.90;;
76995;SDS011;65929;49.062;10.338;2022-12-28T02:25:51;4.35;;;2.85;;
76995;SDS011;65929;49.062;10.338;2022-12-28T02:27:12;3.97;;;2.28;;
76995;SDS011;65929;49.062;10.338;2022-12-28T02:28:40;4.90;;;2.45;;
76995;SDS011;65929;49.062;10.338;2022-12-28T02:30:05;6.03;;;2.97;;
76995;SDS011;65929;49.062;10.338;2022-12-28T02:31:07;3.22;;;2.33;;
76995;SDS011;65929;49.062;10.338;2022-12-28T02:32:16;6.47;;;3.05;;
76995;SDS011;65929;49.062;10.338;2022-12-28T02:33:26;7.32;;;2.65;;
76995;SDS011;65929;49.062;10.338;2022-12-28T02:34:36;3.63;;;2.60;;
76995;SDS011;65929;49.062;10.338;2022-12-28T02:35:43;5.75;;;2.85;;
76995;SDS011;65929;49.062;10.338;2022-12-28T02:36:49;5.00;;;2.95;;
76995;SDS011;65929;49.062;10.338;2022-12-28T02:37:56;5.07;;;2.40;;
76995;SDS011;65929;49.062;10.338;2022-12-28T02:39:02;4.72;;;2.85;;
76995;SDS011;65929;49.062;10.338;2022-12-28T02:40:09;5.03;;;2.72;;
76995;SDS011;65929;49.062;10.338;2022-12-28T02:41:14;3.75;;;2.60;;
76995;SDS011;65929;49.062;10.338;2022-12-28T02:42:17;5.70;;;2.78;;
76995;SDS011;65929;49.062;10.338;2022-12-28T02:43:21;4.38;;;2.20;;
76995;SDS011;65929;49.062;10.338;2022-12-28T02:44:23;4.65;;;2.53;;
76995;SDS011;65929;49.062;10.338;2022-12-28T02:45:43;10.48;;;3.10;;
76995;SDS011;65929;49.062;10.338;2022-12-28T02:47:04;4.93;;;2.60;;
76995;SDS011;65929;49.062;10.338;2022-12-28T02:48:37;5.28;;;2.63;;
76995;SDS011;65929;49.062;10.338;2022-12-28T02:49:57;6.00;;;2.90;;
76995;SDS011;65929;49.062;10.338;2022-12-28T02:51:08;4.82;;;2.40;;
76995;SDS011;65929;49.062;10.338;2022-12-28T02:52:25;6.38;;;2.95;;
76995;SDS011;65929;49.062;10.338;2022-12-28T02:53:43;8.30;;;2.70;;
76995;SDS011;65929;49.062;10.338;2022-12-28T02:55:09;5.88;;;2.60;;
76995;SDS011;65929;49.062;10.338;2022-12-28T02:56:36;4.57;;;2.40;;
76995;SDS011;65929;49.062;10.338;2022-12-28T03:00:38;4.80;;;2.88;;
76995;SDS011;65929;49.062;10.338;2022-12-28T03:01:53;4.95;;;2.88;;
76995;SDS011;65929;49.062;10.338;2022-12-28T03:03:15;4.50;;;2.88;;
76995;SDS011;65929;49.062;10.338;2022-12-28T03:04:26;6.68;;;3.53;;
76995;SDS011;65929;49.062;10.338;2022-12-28T03:05:38;6.03;;;3.72;;
76995;SDS011;65929;49.062;10.338;2022-12-28T03:07:05;5.30;;;3.17;;
76995;SDS011;65929;49.062;10.338;2022-12-28T03:08:30;5.47;;;3.15;;
76995;SDS011;65929;49.062;10.338;2022-12-28T03:09:39;7.40;;;4.28;;
76995;SDS011;65929;49.062;10.338;2022-12-28T03:10:45;7.47;;;3.60;;
76995;SDS011;65929;49.062;10.338;2022-12-28T03:11:56;7.38;;;3.92;;
76995;SDS011;65929;49.062;10.338;2022-12-28T03:13:05;8.45;;;4.18;;
76995;SDS011;65929;49.062;10.338;2022-12-28T03:14:34;8.48;;;3.88;;
76995;SDS011;65929;49.062;10.338;2022-12-28T03:15:41;9.27;;;3.80;;
76995;SDS011;65929;49.062;10.338;2022-12-28T03:16:42;7.53;;;3.42;;
76995;SDS011;65929;49.062;10.338;2022-12-28T03:18:07;7.07;;;4.13;;
76995;SDS011;65929;49.062;10.338;2022-12-28T03:19:48;7.50;;;3.50;;
76995;SDS011;65929;49.062;10.338;2022-12-28T03:21:12;6.43;;;3.72;;
76995;SDS011;65929;49.062;10.338;2022-12-28T03:22:33;7.45;;;3.67;;
76995;SDS011;65929;49.062;10.338;2022-12-28T03:23:55;6.88;;;3.85;;
76995;SDS011;65929;49.062;10.338;2022-12-28T03:25:16;5.50;;;3.53;;
76995;SDS011;65929;49.062;10.338;2022-12-28T03:26:41;6.82;;;3.70;;
76995;SDS011;65929;49.062;10.338;2022-12-28T03:28:07;4.10;;;3.08;;
76995;SDS011;65929;49.062;10.338;2022-12-28T03:29:30;6.43;;;3.10;;
76995;SDS011;65929;49.062;10.338;2022-12-28T03:30:53;7.05;;;3.95;;
76995;SDS011;65929;49.062;10.338;2022-12-28T03:32:05;6.10;;;3.50;;
76995;SDS011;65929;49.062;10.338;2022-12-28T03:33:10;6.70;;;4.00;;
76995;SDS011;65929;49.062;10.338;2022-12-28T03:34:12;6.22;;;3.90;;
76995;SDS011;65929;49.062;10.338;2022-12-28T03:35:13;9.70;;;3.88;;
76995;SDS011;65929;49.062;10.338;2022-12-28T03:36:17;5.80;;;3.40;;
76995;SDS011;65929;49.062;10.338;2022-12-28T03:37:23;6.13;;;3.22;;
76995;SDS011;65929;49.062;10.338;2022-12-28T03:38:30;4.63;;;3.25;;
76995;SDS011;65929;49.062;10.338;2022-12-28T03:39:39;5.93;;;3.35;;
76995;SDS011;65929;49.062;10.338;2022-12-28T03:40:45;7.72;;;3.30;;
76995;SDS011;65929;49.062;10.338;2022-12-28T03:41:49;5.18;;;3.00;;
76995;SDS011;65929;49.062;10.338;2022-12-28T03:43:13;5.25;;;3.05;;
76995;SDS011;65929;49.062;10.338;2022-12-28T03:44:39;4.07;;;2.95;;
76995;SDS011;65929;49.062;10.338;2022-12-28T03:45:47;5.82;;;2.95;;
76995;SDS011;65929;49.062;10.338;2022-12-28T03:46:56;6.65;;;2.60;;
76995;SDS011;65929;49.062;10.338;2022-12-28T03:48:04;4.30;;;2.30;;
76995;SDS011;65929;49.062;10.338;2022-12-28T03:49:06;5.13;;;2.88;;
76995;SDS011;65929;49.062;10.338;2022-12-28T03:50:07;3.38;;;2.30;;
76995;SDS011;65929;49.062;10.338;2022-12-28T03:51:08;4.70;;;2.72;;
76995;SDS011;65929;49.062;10.338;2022-12-28T03:52:11;5.82;;;3.00;;
76995;SDS011;65929;49.062;10.338;2022-12-28T03:53:12;5.85;;;3.00;;
76995;SDS011;65929;49.062;10.338;2022-12-28T03:54:14;4.10;;;2.40;;
76995;SDS011;65929;49.062;10.338;2022-12-28T03:55:16;4.05;;;2.15;;
76995;SDS011;65929;49.062;10.338;2022-12-28T03:56:18;4.18;;;2.63;;
76995;SDS011;65929;49.062;10.338;2022-12-28T03:57:21;8.10;;;3.13;;
76995;SDS011;65929;49.062;10.338;2022-12-28T03:58:22;5.63;;;2.80;;
76995;SDS011;65929;49.062;10.338;2022-12-28T03:59:23;5.38;;;2.90;;
76995;SDS011;65929;49.062;10.338;2022-12-28T04:00:24;3.33;;;2.28;;
76995;SDS011;65929;49.062;10.338;2022-12-28T04:01:25;5.78;;;3.47;;
76995;SDS011;65929;49.062;10.338;2022-12-28T04:02:27;6.68;;;3.75;;
76995;SDS011;65929;49.062;10.338;2022-12-28T04:03:28;8.57;;;3.78;;
76995;SDS011;65929;49.062;10.338;2022-12-28T04:04:29;6.85;;;4.43;;
76995;SDS011;65929;49.062;10.338;2022-12-28T04:05:30;6.53;;;3.67;;
76995;SDS011;65929;49.062;10.338;2022-12-28T04:06:31;7.55;;;3.60;;
76995;SDS011;65929;49.062;10.338;2022-12-28T04:07:32;6.38;;;3.30;;
76995;SDS011;65929;49.062;10.338;2022-12-28T04:08:33;7.47;;;3.53;;
76995;SDS011;65929;49.062;10.338;2022-12-28T04:09:34;5.00;;;2.97;;
76995;SDS011;65929;49.062;10.338;2022-12-28T04:10:35;5.78;;;2.88;;
76995;SDS011;65929;49.062;10.338;2022-12-28T04:11:36;6.85;;;3.05;;
76995;SDS011;65929;49.062;10.338;2022-12-28T04:12:37;4.78;;;2.60;;
76995;SDS011;65929;49.062;10.338;2022-12-28T04:13:38;6.88;;;2.60;;
76995;SDS011;65929;49.062;10.338;2022-12-28T04:14:41;5.28;;;2.92;;
76995;SDS011;65929;49.062;10.338;2022-12-28T04:15:42;4.90;;;3.03;;
76995;SDS011;65929;49.062;10.338;2022-12-28T04:16:43;4.13;;;2.42;;
76995;SDS011;65929;49.062;10.338;2022-12-28T04:17:45;5.18;;;2.70;;
76995;SDS011;65929;49.062;10.338;2022-12-28T04:18:46;5.63;;;3.03;;
76995;SDS011;65929;49.062;10.338;2022-12-28T04:19:47;4.72;;;2.78;;
76995;SDS011;65929;49.062;10.338;2022-12-28T04:20:48;5.50;;;2.90;;
76995;SDS011;65929;49.062;10.338;2022-12-28T04:21:49;4.35;;;2.63;;
76995;SDS011;65929;49.062;10.338;2022-12-28T04:22:50;6.70;;;2.35;;
76995;SDS011;65929;49.062;10.338;2022-12-28T04:23:51;5.75;;;2.55;;
76995;SDS011;65929;49.062;10.338;2022-12-28T04:24:52;4.53;;;2.63;;
76995;SDS011;65929;49.062;10.338;2022-12-28T04:25:57;4.95;;;2.83;;
76995;SDS011;65929;49.062;10.338;2022-12-28T04:26:59;3.55;;;2.22;;
76995;SDS011;65929;49.062;10.338;2022-12-28T04:28:00;5.13;;;2.65;;
76995;SDS011;65929;49.062;10.338;2022-12-28T04:29:01;5.28;;;2.50;;
76995;SDS011;65929;49.062;10.338;2022-12-28T04:30:02;4.55;;;2.17;;
76995;SDS011;65929;49.062;10.338;2022-12-28T04:31:03;5.10;;;2.90;;
76995;SDS011;65929;49.062;10.338;2022-12-28T04:32:05;6.63;;;2.70;;
76995;SDS011;65929;49.062;10.338;2022-12-28T04:33:07;5.60;;;2.42;;
76995;SDS011;65929;49.062;10.338;2022-12-28T04:34:08;4.70;;;3.03;;
76995;SDS011;65929;49.062;10.338;2022-12-28T04:35:10;4.22;;;2.60;;
76995;SDS011;65929;49.062;10.338;2022-12-28T04:36:12;4.82;;;2.45;;
76995;SDS011;65929;49.062;10.338;2022-12-28T04:37:14;3.00;;;2.03;;
76995;SDS011;65929;49.062;10.338;2022-12-28T04:38:15;5.72;;;2.53;;
76995;SDS011;65929;49.062;10.338;2022-12-28T04:39:16;4.43;;;2.60;;
76995;SDS011;65929;49.062;10.338;2022-12-28T04:40:16;4.53;;;2.63;;
76995;SDS011;65929;49.062;10.338;2022-12-28T04:41:17;6.55;;;2.83;;
76995;SDS011;65929;49.062;10.338;2022-12-28T04:42:18;8.25;;;4.22;;
76995;SDS011;65929;49.062;10.338;2022-12-28T04:43:19;8.10;;;3.83;;
76995;SDS011;65929;49.062;10.338;2022-12-28T04:44:20;8.82;;;4.25;;
76995;SDS011;65929;49.062;10.338;2022-12-28T04:45:21;7.30;;;3.92;;
76995;SDS011;65929;49.062;10.338;2022-12-28T04:46:22;5.88;;;3.88;;
76995;SDS011;65929;49.062;10.338;2022-12-28T04:47:24;5.45;;;2.83;;
76995;SDS011;65929;49.062;10.338;2022-12-28T04:48:26;4.35;;;2.80;;
76995;SDS011;65929;49.062;10.338;2022-12-28T04:49:27;4.93;;;2.42;;
76995;SDS011;65929;49.062;10.338;2022-12-28T04:50:29;3.78;;;2.15;;
76995;SDS011;65929;49.062;10.338;2022-12-28T04:51:30;4.82;;;2.70;;
76995;SDS011;65929;49.062;10.338;2022-12-28T04:52:32;6.25;;;2.67;;
76995;SDS011;65929;49.062;10.338;2022-12-28T04:53:35;2.85;;;1.75;;
76995;SDS011;65929;49.062;10.338;2022-12-28T04:54:37;3.92;;;2.22;;
76995;SDS011;65929;49.062;10.338;2022-12-28T04:55:38;5.20;;;1.92;;
76995;SDS011;65929;49.062;10.338;2022-12-28T04:56:39;4.20;;;2.20;;
76995;SDS011;65929;49.062;10.338;2022-12-28T04:57:41;2.65;;;1.60;;
76995;SDS011;65929;49.062;10.338;2022-12-28T04:58:43;4.13;;;2.30;;
76995;SDS011;65929;49.062;10.338;2022-12-28T04:59:46;2.40;;;2.05;;
76995;SDS011;65929;49.062;10.338;2022-12-28T05:00:47;3.88;;;2.35;;
76995;SDS011;65929;49.062;10.338;2022-12-28T05:01:48;5.03;;;2.20;;
76995;SDS011;65929;49.062;10.338;2022-12-28T05:02:49;5.05;;;2.40;;
76995;SDS011;65929;49.062;10.338;2022-12-28T05:03:52;3.35;;;2.13;;
76995;SDS011;65929;49.062;10.338;2022-12-28T05:04:54;4.18;;;2.10;;
76995;SDS011;65929;49.062;10.338;2022-12-28T05:05:58;3.90;;;2.30;;
76995;SDS011;65929;49.062;10.338;2022-12-28T05:07:00;4.95;;;2.05;;
76995;SDS011;65929;49.062;10.338;2022-12-28T05:08:01;2.92;;;1.98;;
76995;SDS011;65929;49.062;10.338;2022-12-28T05:09:02;4.65;;;2.50;;
76995;SDS011;65929;49.062;10.338;2022-12-28T05:10:04;4.47;;;2.58;;
76995;SDS011;65929;49.062;10.338;2022-12-28T05:11:06;5.80;;;2.20;;
76995;SDS011;65929;49.062;10.338;2022-12-28T05:12:08;3.70;;;2.00;;
76995;SDS011;65929;49.062;10.338;2022-12-28T05:13:09;3.70;;;2.00;;
76995;SDS011;65929;49.062;10.338;2022-12-28T05:14:10;3.25;;;2.03;;
76995;SDS011;65929;49.062;10.338;2022-12-28T05:15:11;3.15;;;2.15;;
76995;SDS011;65929;49.062;10.338;2022-12-28T05:16:12;3.28;;;1.90;;
76995;SDS011;65929;49.062;10.338;2022-12-28T05:17:14;5.30;;;2.03;;
76995;SDS011;65929;49.062;10.338;2022-12-28T05:18:15;3.40;;;2.13;;
76995;SDS011;65929;49.062;10.338;2022-12-28T05:19:18;5.65;;;2.20;;
76995;SDS011;65929;49.062;10.338;2022-12-28T05:20:19;3.90;;;1.80;;
76995;SDS011;65929;49.062;10.338;2022-12-28T05:21:20;5.82;;;2.10;;
76995;SDS011;65929;49.062;10.338;2022-12-28T05:22:22;3.50;;;2.25;;
76995;SDS011;65929;49.062;10.338;2022-12-28T05:23:23;4.25;;;2.10;;
76995;SDS011;65929;49.062;10.338;2022-12-28T05:24:24;3.28;;;2.08;;
76995;SDS011;65929;49.062;10.338;2022-12-28T05:25:25;3.78;;;2.03;;
76995;SDS011;65929;49.062;10.338;2022-12-28T05:26:27;4.15;;;2.28;;
76995;SDS011;65929;49.062;10.338;2022-12-28T05:27:29;5.28;;;3.00;;
76995;SDS011;65929;49.062;10.338;2022-12-28T05:28:30;3.97;;;2.05;;
76995;SDS011;65929;49.062;10.338;2022-12-28T05:29:31;4.22;;;2.33;;
76995;SDS011;65929;49.062;10.338;2022-12-28T05:30:32;5.07;;;2.60;;
76995;SDS011;65929;49.062;10.338;2022-12-28T05:31:33;3.92;;;2.28;;
76995;SDS011;65929;49.062;10.338;2022-12-28T05:32:34;3.08;;;2.25;;
76995;SDS011;65929;49.062;10.338;2022-12-28T05:33:35;4.18;;;2.78;;
76995;SDS011;65929;49.062;10.338;2022-12-28T05:34:37;4.65;;;2.85;;
76995;SDS011;65929;49.062;10.338;2022-12-28T05:35:38;6.75;;;3.05;;
76995;SDS011;65929;49.062;10.338;2022-12-28T05:36:39;4.10;;;2.30;;
76995;SDS011;65929;49.062;10.338;2022-12-28T05:37:40;3.72;;;2.00;;
76995;SDS011;65929;49.062;10.338;2022-12-28T06:22:54;3.67;;;2.47;;
76995;SDS011;65929;49.062;10.338;2022-12-28T06:24:01;6.50;;;2.80;;
76995;SDS011;65929;49.062;10.338;2022-12-28T06:25:03;5.82;;;2.92;;
76995;SDS011;65929;49.062;10.338;2022-12-28T06:26:05;3.92;;;2.53;;
76995;SDS011;65929;49.062;10.338;2022-12-28T06:27:07;5.20;;;2.75;;
76995;SDS011;65929;49.062;10.338;2022-12-28T06:28:08;4.55;;;2.33;;
76995;SDS011;65929;49.062;10.338;2022-12-28T06:29:09;4.50;;;2.50;;
76995;SDS011;65929;49.062;10.338;2022-12-28T06:30:12;6.00;;;2.22;;
76995;SDS011;65929;49.062;10.338;2022-12-28T06:31:13;4.93;;;2.22;;
76995;SDS011;65929;49.062;10.338;2022-12-28T06:32:16;3.80;;;2.40;;
76995;SDS011;65929;49.062;10.338;2022-12-28T06:33:17;4.22;;;2.80;;
76995;SDS011;65929;49.062;10.338;2022-12-28T06:34:18;4.00;;;2.05;;
76995;SDS011;65929;49.062;10.338;2022-12-28T06:35:19;4.75;;;2.35;;
76995;SDS011;65929;49.062;10.338;2022-12-28T06:36:20;3.85;;;2.17;;
76995;SDS011;65929;49.062;10.338;2022-12-28T06:37:23;4.50;;;2.10;;
76995;SDS011;65929;49.062;10.338;2022-12-28T06:38:25;4.70;;;2.22;;
76995;SDS011;65929;49.062;10.338;2022-12-28T06:39:28;4.30;;;2.40;;
76995;SDS011;65929;49.062;10.338;2022-12-28T06:40:35;3.95;;;2.35;;
76995;SDS011;65929;49.062;10.338;2022-12-28T06:41:36;3.63;;;1.98;;
76995;SDS011;65929;49.062;10.338;2022-12-28T06:42:38;6.07;;;2.88;;
76995;SDS011;65929;49.062;10.338;2022-12-28T06:43:39;3.70;;;1.83;;
76995;SDS011;65929;49.062;10.338;2022-12-28T06:44:41;4.80;;;2.75;;
76995;SDS011;65929;49.062;10.338;2022-12-28T06:45:42;4.88;;;2.30;;
76995;SDS011;65929;49.062;10.338;2022-12-28T06:46:43;4.32;;;2.65;;
76995;SDS011;65929;49.062;10.338;2022-12-28T06:47:44;6.25;;;3.35;;
76995;SDS011;65929;49.062;10.338;2022-12-28T06:48:45;10.73;;;5.00;;
76995;SDS011;65929;49.062;10.338;2022-12-28T06:49:46;9.52;;;4.35;;
76995;SDS011;65929;49.062;10.338;2022-12-28T06:50:53;6.68;;;3.90;;
76995;SDS011;65929;49.062;10.338;2022-12-28T06:51:57;7.47;;;3.30;;
76995;SDS011;65929;49.062;10.338;2022-12-28T06:52:58;9.20;;;4.22;;
76995;SDS011;65929;49.062;10.338;2022-12-28T06:54:01;7.70;;;3.80;;
76995;SDS011;65929;49.062;10.338;2022-12-28T06:55:02;6.07;;;2.92;;
76995;SDS011;65929;49.062;10.338;2022-12-28T06:56:04;8.77;;;4.05;;
76995;SDS011;65929;49.062;10.338;2022-12-28T06:57:06;14.70;;;7.82;;
76995;SDS011;65929;49.062;10.338;2022-12-28T06:58:07;18.63;;;8.25;;
76995;SDS011;65929;49.062;10.338;2022-12-28T06:59:08;10.10;;;5.80;;
76995;SDS011;65929;49.062;10.338;2022-12-28T07:00:09;10.07;;;5.63;;
76995;SDS011;65929;49.062;10.338;2022-12-28T07:01:12;9.80;;;5.15;;
76995;SDS011;65929;49.062;10.338;2022-12-28T07:02:14;8.13;;;4.25;;
76995;SDS011;65929;49.062;10.338;2022-12-28T07:03:15;9.45;;;5.90;;
76995;SDS011;65929;49.062;10.338;2022-12-28T07:04:16;10.23;;;6.85;;
76995;SDS011;65929;49.062;10.338;2022-12-28T07:05:17;7.85;;;6.47;;
76995;SDS011;65929;49.062;10.338;2022-12-28T07:06:19;6.70;;;4.40;;
76995;SDS011;65929;49.062;10.338;2022-12-28T07:07:21;4.22;;;2.70;;
76995;SDS011;65929;49.062;10.338;2022-12-28T07:08:22;6.30;;;2.60;;
76995;SDS011;65929;49.062;10.338;2022-12-28T07:09:24;7.82;;;3.30;;
76995;SDS011;65929;49.062;10.338;2022-12-28T07:10:25;7.50;;;4.45;;
76995;SDS011;65929;49.062;10.338;2022-12-28T07:11:27;6.05;;;2.88;;
76995;SDS011;65929;49.062;10.338;2022-12-28T07:12:28;4.43;;;3.28;;
76995;SDS011;65929;49.062;10.338;2022-12-28T07:13:29;8.38;;;5.40;;
76995;SDS011;65929;49.062;10.338;2022-12-28T07:14:30;6.57;;;4.90;;
76995;SDS011;65929;49.062;10.338;2022-12-28T07:15:33;10.68;;;8.98;;
76995;SDS011;65929;49.062;10.338;2022-12-28T07:16:35;10.90;;;6.72;;
76995;SDS011;65929;49.062;10.338;2022-12-28T07:17:36;11.05;;;8.57;;
76995;SDS011;65929;49.062;10.338;2022-12-28T07:18:36;7.88;;;4.78;;
76995;SDS011;65929;49.062;10.338;2022-12-28T07:19:41;10.15;;;7.07;;
76995;SDS011;65929;49.062;10.338;2022-12-28T07:20:42;8.90;;;5.53;;
76995;SDS011;65929;49.062;10.338;2022-12-28T07:21:43;6.22;;;4.05;;
76995;SDS011;65929;49.062;10.338;2022-12-28T07:22:44;7.68;;;3.78;;
76995;SDS011;65929;49.062;10.338;2022-12-28T07:23:45;5.28;;;3.10;;
76995;SDS011;65929;49.062;10.338;2022-12-28T07:24:47;6.40;;;2.97;;